Archival Weather

Lamerd

Lamerd, Iran (OISR)

Report from: Saturday, April 1, 2023 6:00 AM UTC
Current time: Wednesday, May 29, 2024 8:59 AM UTC

Current weather – Weather history – Daily summaries
Weather forecast

Temperature25.0°C (77.0°F)
Dew point12.0°C (53.6°F)
Winds 6 kts (3.1 m/s, 6.9 mph) West-Northwest (290°)
Clouds Sky clear
Altimeter29.92 in.Hg (1013 mB)
Relative humidity44 %
Density altitude1,357 ft. (414 m)
Remarks Ceiling and visibility OK
No significant changes expected in the next two hours
Flight conditions Visual Meteorological Conditions
Raw dataOISR 010600Z 29006KT CAVOK 25/12 Q1013 A2992 NOSIG
An error has occurred. This application may no longer respond until reloaded. Reload 🗙